Time;durP1;ratioP1;P1;durP2;ratioP2;P2;SDS_P1;SDS_P2;PMS_P1;PMS_P2;Temp;Humidity;BMP_temperature;BMP_pressure;BME280_temperature;BME280_humidity;BME280_pressure;Samples;Min_cycle;Max_cycle;Signal;HPM_P1;HPM_P2
2021/04/02 00:01:09;;;;;;;17.90;8.30;;;;;;;16.40;48.36;99794.47;5097181;28;20043;-55
2021/04/02 00:03:37;;;;;;;22.73;9.13;;;;;;;16.35;48.51;99797.91;5097528;28;20103;-59
2021/04/02 00:06:05;;;;;;;21.40;9.60;;;;;;;16.30;48.91;99789.97;5097383;28;20120;-52
2021/04/02 00:08:31;;;;;;;16.20;8.90;;;;;;;16.25;48.45;99807.56;5095283;28;20115;-60
2021/04/02 00:10:59;;;;;;;20.27;9.75;;;;;;;16.20;48.68;99806.13;5096929;28;20030;-55
2021/04/02 00:13:30;;;;;;;18.30;9.00;;;;;;;16.22;48.59;99811.31;5089120;28;20319;-57
2021/04/02 00:15:57;;;;;;;20.30;9.18;;;;;;;16.19;48.32;99801.69;5096944;28;20488;-57
2021/04/02 00:18:24;;;;;;;14.05;8.60;;;;;;;16.17;48.08;99806.22;5097295;28;20043;-58
2021/04/02 00:20:50;;;;;;;20.42;9.52;;;;;;;16.12;48.08;99796.22;5097240;28;20489;-56
2021/04/02 00:23:16;;;;;;;17.13;8.82;;;;;;;16.07;48.27;99796.81;5097505;28;20048;-55
2021/04/02 00:25:42;;;;;;;19.30;9.35;;;;;;;16.01;48.62;99802.25;5096211;28;20027;-51
2021/04/02 00:28:07;;;;;;;23.77;9.55;;;;;;;15.98;48.62;99796.72;5096953;28;20024;-60
2021/04/02 00:30:46;;;;;;;22.45;9.98;;;;;;;15.94;48.59;99804.53;5096730;28;20016;-59
2021/04/02 00:33:13;;;;;;;22.17;9.52;;;;;;;15.90;48.79;99810.31;5096945;28;20020;-58
2021/04/02 00:35:39;;;;;;;19.67;10.15;;;;;;;15.86;49.02;99800.31;5096798;28;20473;-57
2021/04/02 00:38:07;;;;;;;19.52;9.35;;;;;;;15.82;49.14;99802.47;5096765;28;20433;-55
2021/04/02 00:40:40;;;;;;;19.65;9.57;;;;;;;15.77;49.27;99807.47;5096766;28;20023;-59
2021/04/02 00:43:05;;;;;;;23.08;10.68;;;;;;;15.70;49.33;99802.03;5096235;28;20423;-47
2021/04/02 00:45:31;;;;;;;19.60;10.00;;;;;;;15.65;49.03;99807.47;5096292;28;20102;-62
2021/04/02 00:47:57;;;;;;;18.05;9.00;;;;;;;15.60;49.58;99805.19;5096596;28;20020;-61
2021/04/02 00:50:25;;;;;;;20.17;9.20;;;;;;;15.58;49.33;99801.97;5096560;28;20312;-53
2021/04/02 00:52:50;;;;;;;25.10;10.88;;;;;;;15.56;49.83;99802.44;5096376;28;20015;-61
2021/04/02 00:55:16;;;;;;;21.90;10.25;;;;;;;15.51;50.08;99805.81;5096311;28;20106;-61
2021/04/02 00:57:42;;;;;;;18.45;9.70;;;;;;;15.46;49.69;99798.69;5096192;28;20052;-61
2021/04/02 01:00:09;;;;;;;24.20;10.82;;;;;;;15.41;49.80;99809.78;5096672;28;20024;-55
2021/04/02 01:02:34;;;;;;;23.30;10.32;;;;;;;15.36;50.10;99813.16;5096299;28;20111;-55
2021/04/02 01:05:06;;;;;;;26.48;10.82;;;;;;;15.33;50.31;99808.38;5096542;28;20183;-55
2021/04/02 01:07:31;;;;;;;20.13;9.82;;;;;;;15.30;50.06;99821.41;5100219;28;20050;-56
2021/04/02 01:09:56;;;;;;;22.00;9.90;;;;;;;15.25;50.57;99821.97;5096835;28;20028;-57
2021/04/02 01:12:22;;;;;;;22.95;9.80;;;;;;;15.19;50.38;99820.13;5096047;28;20030;-57
2021/04/02 01:14:47;;;;;;;25.13;10.45;;;;;;;15.13;50.59;99829.19;5095946;28;20024;-56
2021/04/02 01:17:12;;;;;;;25.20;11.20;;;;;;;15.07;50.82;99830.97;5094510;28;20027;-58
2021/04/02 01:19:44;;;;;;;18.50;9.88;;;;;;;15.02;50.88;99831.50;5096212;28;20028;-55
2021/04/02 01:22:17;;;;;;;24.33;10.63;;;;;;;14.99;50.70;99837.25;5095663;28;20080;-59
2021/04/02 01:25:04;;;;;;;22.33;10.95;;;;;;;14.92;51.18;99838.25;5095946;28;20028;-55
2021/04/02 01:27:41;;;;;;;22.10;10.43;;;;;;;14.90;51.22;99832.25;5095378;28;20016;-59
2021/04/02 01:30:10;;;;;;;23.75;10.23;;;;;;;14.91;51.76;99838.69;5096055;28;20081;-57
2021/04/02 01:32:40;;;;;;;22.67;9.63;;;;;;;14.90;51.14;99831.47;5096275;28;20034;-52
2021/04/02 01:35:28;;;;;;;24.08;9.57;;;;;;;14.81;51.39;99834.94;5095704;28;20024;-59
2021/04/02 01:38:01;;;;;;;17.55;10.05;;;;;;;14.71;51.35;99827.50;5096009;28;20430;-58
2021/04/02 01:40:29;;;;;;;22.48;10.43;;;;;;;14.63;51.91;99828.94;5095759;28;20144;-57
2021/04/02 01:42:59;;;;;;;23.63;10.40;;;;;;;14.56;51.88;99829.94;5095715;28;20028;-56
2021/04/02 01:45:25;;;;;;;23.35;9.95;;;;;;;14.49;52.21;99827.25;5095656;28;20028;-60
2021/04/02 01:47:51;;;;;;;20.80;11.30;;;;;;;14.41;53.25;99818.16;5095887;28;20012;-58
2021/04/02 01:50:18;;;;;;;22.42;10.63;;;;;;;14.37;52.57;99823.09;5095845;28;20477;-57
2021/04/02 01:52:45;;;;;;;25.40;10.15;;;;;;;14.36;53.37;99820.72;5095805;28;20028;-57
2021/04/02 01:55:13;;;;;;;17.92;9.88;;;;;;;14.33;52.48;99819.56;5088214;28;20044;-60
2021/04/02 01:57:40;;;;;;;25.77;10.95;;;;;;;14.27;53.08;99818.53;5097597;28;20355;-57
2021/04/02 02:00:20;;;;;;;24.17;10.50;;;;;;;14.21;52.95;99814.59;5099878;28;20054;-61
2021/04/02 02:02:46;;;;;;;20.40;9.85;;;;;;;14.13;53.49;99814.00;5099795;28;20030;-60
2021/04/02 02:05:13;;;;;;;20.23;10.70;;;;;;;14.06;53.71;99807.72;5099907;28;20357;-59
2021/04/02 02:07:42;;;;;;;24.67;10.68;;;;;;;13.99;53.54;99807.91;5103008;28;20044;-57
2021/04/02 02:10:09;;;;;;;21.77;10.95;;;;;;;13.95;54.52;99810.00;5087652;28;20027;-59
2021/04/02 02:12:39;;;;;;;24.17;10.93;;;;;;;13.89;54.42;99804.88;5099864;28;20028;-61
2021/04/02 02:15:16;;;;;;;17.80;10.00;;;;;;;13.84;54.12;99802.59;5099938;28;20032;-62
2021/04/02 02:17:47;;;;;;;23.08;10.45;;;;;;;13.82;53.91;99792.97;5099183;28;20051;-61
2021/04/02 02:20:14;;;;;;;26.63;11.47;;;;;;;13.77;54.60;99799.94;5099572;28;20020;-59
2021/04/02 02:22:41;;;;;;;23.63;10.10;;;;;;;13.75;54.54;99793.94;5099772;28;20276;-61
2021/04/02 02:25:08;;;;;;;21.40;10.00;;;;;;;13.74;54.54;99800.81;5099127;28;20023;-60
2021/04/02 02:27:36;;;;;;;22.25;12.18;;;;;;;13.71;54.57;99798.88;5099299;28;20031;-63
2021/04/02 02:30:09;;;;;;;18.65;10.57;;;;;;;13.67;54.71;99803.78;5099372;28;20051;-58
2021/04/02 02:32:35;;;;;;;21.55;11.13;;;;;;;13.66;54.83;99795.75;5099433;28;20024;-62
2021/04/02 02:35:00;;;;;;;25.27;11.02;;;;;;;13.63;54.48;99793.81;5097767;28;20028;-58
2021/04/02 02:37:26;;;;;;;20.48;10.38;;;;;;;13.60;54.49;99789.81;5099521;28;20028;-58
2021/04/02 02:39:52;;;;;;;24.92;11.60;;;;;;;13.58;55.15;99801.56;5099072;28;20335;-58
2021/04/02 02:42:17;;;;;;;25.83;11.48;;;;;;;13.54;54.92;99800.84;5098875;28;20015;-59
2021/04/02 02:44:44;;;;;;;24.45;11.98;;;;;;;13.49;54.98;99792.09;5099216;28;20323;-57
2021/04/02 02:47:09;;;;;;;26.08;12.38;;;;;;;13.45;54.80;99788.56;5099165;28;20016;-54
2021/04/02 02:49:37;;;;;;;30.00;11.15;;;;;;;13.42;55.46;99795.06;5099176;28;20047;-61
2021/04/02 02:52:03;;;;;;;27.98;12.27;;;;;;;13.40;55.24;99801.16;5098796;28;20039;-59
2021/04/02 02:54:29;;;;;;;21.25;11.60;;;;;;;13.35;55.17;99798.84;5094425;28;20012;-59
2021/04/02 02:56:57;;;;;;;25.73;13.43;;;;;;;13.34;55.32;99796.47;5092926;28;20323;-60
2021/04/02 02:59:24;;;;;;;23.10;12.40;;;;;;;13.28;55.81;99808.25;5098764;28;20041;-61
2021/04/02 03:01:52;;;;;;;22.15;11.85;;;;;;;13.24;55.58;99810.38;5099069;28;20082;-57
2021/04/02 03:04:19;;;;;;;22.58;12.07;;;;;;;13.21;55.45;99811.25;5098569;28;20046;-57
2021/04/02 03:06:46;;;;;;;27.27;12.82;;;;;;;13.21;55.57;99822.53;5097237;28;20073;-56
2021/04/02 03:09:15;;;;;;;23.17;11.52;;;;;;;13.20;55.41;99815.31;5089512;28;20016;-62
2021/04/02 03:11:44;;;;;;;31.95;13.88;;;;;;;13.17;55.68;99816.16;5098513;28;20366;-61
2021/04/02 03:14:17;;;;;;;26.40;13.75;;;;;;;13.15;55.60;99814.97;5098379;28;20378;-63
2021/04/02 03:16:46;;;;;;;28.80;12.25;;;;;;;13.07;55.78;99814.31;5098358;28;20048;-57
2021/04/02 03:19:14;;;;;;;30.23;12.75;;;;;;;13.06;55.92;99820.38;5097937;28;20289;-57
2021/04/02 03:21:40;;;;;;;29.65;14.15;;;;;;;13.06;55.48;99806.28;5098269;28;20316;-54
2021/04/02 03:24:07;;;;;;;24.67;12.77;;;;;;;13.06;55.76;99804.25;5098453;28;20024;-58
2021/04/02 03:26:33;;;;;;;24.15;13.55;;;;;;;13.05;55.69;99811.13;5098193;28;20020;-56
2021/04/02 03:28:59;;;;;;;29.05;13.73;;;;;;;13.02;55.98;99809.19;5098260;28;20399;-53
2021/04/02 03:31:26;;;;;;;30.40;13.23;;;;;;;12.98;55.61;99805.63;5097903;28;20096;-59
2021/04/02 03:33:54;;;;;;;30.27;13.95;;;;;;;12.97;56.01;99818.16;5097982;28;20027;-54
2021/04/02 03:36:24;;;;;;;29.58;14.60;;;;;;;12.94;56.04;99816.19;5097841;28;20030;-50
2021/04/02 03:38:50;;;;;;;27.50;13.85;;;;;;;12.93;55.97;99815.41;5097746;28;20052;-55
2021/04/02 03:41:21;;;;;;;29.92;14.52;;;;;;;12.92;56.09;99813.81;5097710;28;20503;-58
2021/04/02 03:43:47;;;;;;;34.30;16.08;;;;;;;12.92;56.19;99813.03;5097954;28;20292;-59
2021/04/02 03:46:15;;;;;;;29.27;14.80;;;;;;;12.94;55.46;99810.56;5098020;28;20027;-60
2021/04/02 03:48:42;;;;;;;36.95;14.48;;;;;;;12.94;55.41;99814.19;5079539;28;20011;-58
2021/04/02 03:51:11;;;;;;;28.42;13.88;;;;;;;12.92;55.78;99807.38;5097968;28;20480;-56
2021/04/02 03:53:58;;;;;;;29.52;14.52;;;;;;;12.90;55.82;99809.84;5097452;28;20028;-55
2021/04/02 03:56:27;;;;;;;31.98;14.50;;;;;;;12.89;56.27;99816.72;5086322;28;20036;-55
2021/04/02 03:58:54;;;;;;;30.58;15.65;;;;;;;12.87;56.04;99807.84;5097459;28;20031;-58
2021/04/02 04:01:23;;;;;;;36.97;16.10;;;;;;;12.88;56.10;99815.91;5097493;28;20633;-55
2021/04/02 04:03:51;;;;;;;41.17;16.17;;;;;;;12.91;56.44;99803.75;5097784;28;20043;-57
2021/04/02 04:06:19;;;;;;;33.15;15.43;;;;;;;12.93;56.48;99797.69;5097640;28;20035;-56
2021/04/02 04:08:47;;;;;;;33.40;15.77;;;;;;;12.94;56.23;99796.47;5089243;28;20075;-63
2021/04/02 04:11:15;;;;;;;31.40;15.88;;;;;;;12.92;55.88;99801.75;5097063;28;20020;-57
2021/04/02 04:13:43;;;;;;;34.65;17.20;;;;;;;12.95;56.06;99809.31;5097351;28;20027;-57
2021/04/02 04:16:13;;;;;;;47.95;17.38;;;;;;;12.92;56.20;99807.38;5096954;28;20027;-54
2021/04/02 04:18:40;;;;;;;28.88;15.07;;;;;;;12.89;55.84;99811.06;5096016;28;20027;-57
2021/04/02 04:21:07;;;;;;;32.75;16.70;;;;;;;12.90;55.77;99801.38;5078920;28;20335;-56
2021/04/02 04:23:34;;;;;;;35.55;17.27;;;;;;;12.89;56.38;99805.44;5097415;28;20035;-58
2021/04/02 04:26:00;;;;;;;39.42;17.45;;;;;;;12.86;56.29;99804.25;5096982;28;20031;-58
2021/04/02 04:28:27;;;;;;;32.45;15.23;;;;;;;12.86;56.31;99817.53;5097059;28;20311;-59
2021/04/02 04:30:56;;;;;;;32.70;16.15;;;;;;;12.81;56.62;99818.84;5096879;28;20034;-61
2021/04/02 04:33:24;;;;;;;34.33;15.82;;;;;;;12.80;56.81;99813.63;5096930;28;20320;-57
2021/04/02 04:35:50;;;;;;;33.03;17.33;;;;;;;12.79;56.88;99826.16;5096854;28;20028;-58
2021/04/02 04:38:17;;;;;;;32.97;15.52;;;;;;;12.79;56.74;99826.16;5096568;28;20111;-63
2021/04/02 04:40:43;;;;;;;32.72;16.15;;;;;;;12.78;56.52;99833.81;5096836;28;20016;-58
2021/04/02 04:43:14;;;;;;;32.42;16.15;;;;;;;12.81;56.90;99823.69;5078976;28;20385;-61
2021/04/02 04:45:40;;;;;;;33.15;16.27;;;;;;;12.85;56.70;99830.84;5096470;28;20019;-59
2021/04/02 04:48:06;;;;;;;30.45;16.60;;;;;;;12.91;56.30;99831.97;5095979;28;20047;-56
2021/04/02 04:50:32;;;;;;;29.52;15.85;;;;;;;12.94;56.37;99830.31;5095357;28;20016;-55
2021/04/02 04:53:13;;;;;;;33.88;15.27;;;;;;;12.96;56.36;99839.13;5096697;28;20047;-54
2021/04/02 04:55:40;;;;;;;34.20;17.02;;;;;;;12.95;56.73;99840.34;5085689;28;20020;-55
2021/04/02 04:58:10;;;;;;;40.03;18.30;;;;;;;12.91;57.09;99842.47;5096403;28;20111;-62
2021/04/02 05:00:37;;;;;;;37.03;17.20;;;;;;;12.90;56.83;99847.31;5096424;28;20024;-62
2021/04/02 05:03:04;;;;;;;33.72;16.45;;;;;;;12.90;56.84;99852.94;5096647;28;20016;-58
2021/04/02 05:05:33;;;;;;;29.73;16.02;;;;;;;12.92;57.25;99860.97;5094888;28;20016;-61
2021/04/02 05:08:02;;;;;;;35.15;16.70;;;;;;;12.94;57.28;99858.50;5094847;28;20124;-55
2021/04/02 05:10:30;;;;;;;37.67;17.98;;;;;;;12.95;57.31;99862.94;5089711;28;20020;-56
2021/04/02 05:12:57;;;;;;;33.03;17.52;;;;;;;12.98;57.01;99864.88;5096011;28;20059;-61
2021/04/02 05:15:23;;;;;;;31.63;16.75;;;;;;;13.00;57.03;99857.56;5096378;28;20024;-59
2021/04/02 05:17:50;;;;;;;36.78;18.52;;;;;;;13.05;57.10;99858.28;5096058;28;20028;-62
2021/04/02 05:20:17;;;;;;;46.80;20.13;;;;;;;13.09;57.10;99859.81;5094872;28;20020;-63
2021/04/02 05:22:42;;;;;;;41.15;17.73;;;;;;;13.15;56.93;99862.97;5096041;28;20024;-49
2021/04/02 05:25:08;;;;;;;31.10;16.60;;;;;;;13.19;56.74;99858.84;5096280;28;20035;-51
2021/04/02 05:27:36;;;;;;;34.25;17.05;;;;;;;13.21;56.66;99856.41;5095888;28;20019;-61
2021/04/02 05:30:02;;;;;;;31.40;15.77;;;;;;;13.25;56.59;99856.31;5095984;28;20098;-52
2021/04/02 05:32:27;;;;;;;31.90;18.20;;;;;;;13.29;56.58;99863.47;5096148;28;20030;-51
2021/04/02 05:34:53;;;;;;;34.08;16.63;;;;;;;13.33;56.68;99865.44;5095455;28;20316;-55
2021/04/02 05:37:18;;;;;;;30.23;15.63;;;;;;;13.38;56.54;99870.56;5096081;28;20313;-50
2021/04/02 05:39:45;;;;;;;34.55;15.88;;;;;;;13.43;56.42;99865.22;5074968;28;21468;-51
2021/04/02 05:42:12;;;;;;;28.05;16.58;;;;;;;13.46;56.65;99860.75;5057799;28;20055;-53
2021/04/02 05:44:38;;;;;;;30.25;15.68;;;;;;;13.51;56.90;99861.03;5075707;28;20031;-52
2021/04/02 05:47:14;;;;;;;41.25;21.60;;;;;;;13.55;56.58;99861.72;5075809;28;20024;-59
2021/04/02 05:49:39;;;;;;;46.53;26.90;;;;;;;13.60;56.88;99866.06;5075274;28;20048;-61
2021/04/02 05:52:06;;;;;;;42.13;22.40;;;;;;;13.64;56.68;99860.34;5075611;28;20054;-58
2021/04/02 05:54:37;;;;;;;34.88;18.20;;;;;;;13.71;56.89;99863.03;5070774;28;20016;-57
2021/04/02 05:57:03;;;;;;;33.35;18.40;;;;;;;13.78;57.17;99860.84;5070283;28;20039;-57
2021/04/02 05:59:28;;;;;;;25.83;15.65;;;;;;;13.87;57.13;99863.06;5057785;28;20024;-53
2021/04/02 06:01:55;;;;;;;27.98;15.50;;;;;;;13.96;57.36;99865.28;5075027;28;20058;-60
2021/04/02 06:04:21;;;;;;;34.30;16.17;;;;;;;14.02;56.99;99869.19;5075401;28;20029;-56
2021/04/02 06:06:47;;;;;;;28.05;15.32;;;;;;;14.07;57.44;99868.66;5075419;28;20256;-54
2021/04/02 06:09:14;;;;;;;27.42;15.25;;;;;;;14.11;57.00;99881.47;5066158;28;20028;-56
2021/04/02 06:11:40;;;;;;;24.02;15.23;;;;;;;14.16;56.46;99880.94;5075677;28;20308;-57
2021/04/02 06:14:06;;;;;;;25.80;14.70;;;;;;;14.20;56.45;99875.19;5075135;28;20032;-59
2021/04/02 06:16:32;;;;;;;26.40;15.07;;;;;;;14.25;56.58;99869.03;5075361;28;20029;-59
2021/04/02 06:19:09;;;;;;;30.33;14.73;;;;;;;14.32;56.57;99868.88;5057395;28;20029;-54
2021/04/02 06:21:47;;;;;;;30.92;15.45;;;;;;;14.40;56.17;99869.47;5075223;28;20414;-55
2021/04/02 06:24:14;;;;;;;25.80;14.38;;;;;;;14.46;55.71;99877.03;5075284;28;20497;-57
2021/04/02 06:26:40;;;;;;;28.85;14.77;;;;;;;14.52;56.00;99880.13;5075205;28;20021;-57
2021/04/02 06:29:05;;;;;;;25.92;14.25;;;;;;;14.57;55.67;99881.63;5075401;28;20023;-57
2021/04/02 06:31:35;;;;;;;28.75;14.65;;;;;;;14.59;56.24;99879.16;5075191;28;20021;-55
2021/04/02 06:34:05;;;;;;;28.58;15.90;;;;;;;14.62;55.43;99876.22;5075275;28;20031;-59
2021/04/02 06:36:30;;;;;;;22.58;14.27;;;;;;;14.65;55.69;99880.19;5075228;28;20028;-56
2021/04/02 06:38:56;;;;;;;29.27;14.85;;;;;;;14.68;55.19;99873.66;5075064;28;20036;-60
2021/04/02 06:41:24;;;;;;;26.92;14.70;;;;;;;14.71;55.13;99882.03;5076322;28;20319;-54
2021/04/02 06:43:51;;;;;;;31.15;14.73;;;;;;;14.74;55.50;99883.97;5061030;28;20027;-59
2021/04/02 06:46:28;;;;;;;26.13;14.73;;;;;;;14.78;55.37;99886.72;5078698;28;20028;-58
2021/04/02 06:48:54;;;;;;;24.95;13.95;;;;;;;14.81;54.95;99900.00;5078478;28;20074;-61
2021/04/02 06:51:22;;;;;;;25.30;14.07;;;;;;;14.86;54.84;99907.94;5078805;28;20044;-55
2021/04/02 06:53:49;;;;;;;25.17;14.52;;;;;;;14.90;55.32;99908.66;5078743;28;20029;-53
2021/04/02 06:56:16;;;;;;;24.15;14.30;;;;;;;14.95;54.89;99907.31;5067968;28;20024;-64
2021/04/02 06:58:43;;;;;;;26.23;13.57;;;;;;;14.99;54.85;99911.63;5078441;28;20025;-59
2021/04/02 07:01:13;;;;;;;28.50;14.93;;;;;;;15.05;55.46;99906.22;5078278;28;20081;-56
2021/04/02 07:03:40;;;;;;;29.73;14.52;;;;;;;15.12;54.71;99918.16;5078522;28;20024;-60
2021/04/02 07:06:06;;;;;;;25.10;13.75;;;;;;;15.19;54.83;99919.22;5076567;28;20439;-57
2021/04/02 07:08:37;;;;;;;25.75;14.00;;;;;;;15.23;54.35;99912.22;5060928;28;20040;-51
2021/04/02 07:11:02;;;;;;;29.33;14.60;;;;;;;15.26;53.98;99911.31;5066208;28;20031;-56
2021/04/02 07:13:49;;;;;;;28.75;12.93;;;;;;;15.27;54.34;99912.09;5067819;28;20344;-48
2021/04/02 07:16:19;;;;;;;27.40;13.70;;;;;;;15.27;54.18;99909.28;5077589;28;20367;-55
2021/04/02 07:18:45;;;;;;;28.52;14.80;;;;;;;15.28;54.47;99910.88;5077589;28;20025;-56
2021/04/02 07:21:12;;;;;;;23.92;13.98;;;;;;;15.30;54.05;99914.03;5076953;28;20074;-55
2021/04/02 07:23:42;;;;;;;21.67;13.68;;;;;;;15.31;54.63;99912.78;5077889;28;20048;-55
2021/04/02 07:26:12;;;;;;;29.70;13.23;;;;;;;15.32;54.57;99915.19;5077715;28;20035;-58
2021/04/02 07:28:41;;;;;;;25.35;13.50;;;;;;;15.33;53.94;99922.44;5078182;28;20013;-59
2021/04/02 07:31:07;;;;;;;22.95;13.15;;;;;;;15.35;54.31;99924.84;5077625;28;20035;-56
2021/04/02 07:33:36;;;;;;;24.95;13.10;;;;;;;15.36;54.65;99927.22;5075860;28;20071;-53
2021/04/02 07:36:04;;;;;;;34.97;14.43;;;;;;;15.37;54.32;99928.81;5075920;28;20027;-56
2021/04/02 07:38:32;;;;;;;22.50;12.23;;;;;;;15.39;55.13;99939.69;5077480;28;20407;-55
2021/04/02 07:41:05;;;;;;;28.20;14.23;;;;;;;15.39;55.52;99932.00;5059950;28;20438;-56
2021/04/02 07:43:32;;;;;;;25.08;13.82;;;;;;;15.40;55.68;99938.44;5077531;28;20048;-52
2021/04/02 07:46:11;;;;;;;29.45;14.30;;;;;;;15.41;56.01;99932.34;5077257;28;20024;-57
2021/04/02 07:48:36;;;;;;;30.25;13.50;;;;;;;15.42;56.36;99941.63;5077550;28;20016;-57
2021/04/02 07:51:02;;;;;;;41.60;19.70;;;;;;;15.44;56.91;99939.16;5077555;28;20031;-51
2021/04/02 07:53:28;;;;;;;33.75;16.27;;;;;;;15.46;56.67;99936.66;5077263;28;20043;-58
2021/04/02 07:55:54;;;;;;;28.13;15.02;;;;;;;15.48;56.90;99948.34;5066884;28;20123;-55
2021/04/02 07:58:25;;;;;;;24.83;14.20;;;;;;;15.49;57.09;99944.25;5035950;28;20026;-59
2021/04/02 08:00:57;;;;;;;25.40;13.88;;;;;;;15.50;56.92;99948.69;5055361;28;20096;-60
2021/04/02 08:03:35;;;;;;;30.73;14.75;;;;;;;15.52;56.76;99954.69;5057538;28;20045;-63
2021/04/02 08:06:04;;;;;;;30.67;14.30;;;;;;;15.54;56.27;99957.06;5061338;28;20363;-61
2021/04/02 08:08:50;;;;;;;26.27;15.75;;;;;;;15.55;56.83;99956.63;5056380;28;20037;-61
2021/04/02 08:11:28;;;;;;;24.45;14.88;;;;;;;15.55;56.82;99962.28;5055851;28;20337;-61
2021/04/02 08:14:01;;;;;;;26.77;14.07;;;;;;;15.56;56.60;99971.59;5038288;28;20025;-59
2021/04/02 08:16:33;;;;;;;27.10;15.35;;;;;;;15.57;56.28;99964.69;5056871;28;20017;-61
2021/04/02 08:19:25;;;;;;;34.17;13.98;;;;;;;15.57;56.72;99976.81;5056489;28;20550;-61
2021/04/02 08:21:54;;;;;;;27.17;14.38;;;;;;;15.59;56.78;99968.69;5056869;28;20025;-61
2021/04/02 08:24:25;;;;;;;28.60;14.45;;;;;;;15.61;56.86;99973.91;5036192;28;20028;-62
2021/04/02 08:26:51;;;;;;;22.98;12.57;;;;;;;15.63;56.33;99965.78;5054095;28;20408;-62
2021/04/02 08:29:20;;;;;;;25.10;13.38;;;;;;;15.63;55.65;99963.72;5056300;28;20079;-57
2021/04/02 08:32:05;;;;;;;23.27;12.15;;;;;;;15.63;55.97;99974.28;5038488;28;20028;-57
2021/04/02 08:34:32;;;;;;;25.13;12.27;;;;;;;15.63;56.28;99968.59;5056130;28;20027;-56
2021/04/02 08:37:01;;;;;;;24.30;12.98;;;;;;;15.62;56.44;99961.34;5056373;28;20409;-55
2021/04/02 08:39:26;;;;;;;21.90;12.50;;;;;;;15.61;56.64;99966.22;5056689;28;20032;-53
2021/04/02 08:42:00;;;;;;;25.05;13.00;;;;;;;15.61;56.46;99965.41;5056216;28;20032;-56
2021/04/02 08:44:47;;;;;;;24.88;13.95;;;;;;;15.60;56.97;99963.81;5056718;28;20032;-49
2021/04/02 08:47:14;;;;;;;32.40;14.63;;;;;;;15.59;57.34;99965.84;5055640;28;20037;-53
2021/04/02 08:49:42;;;;;;;31.50;14.48;;;;;;;15.60;58.14;99964.59;5056208;28;20420;-54
2021/04/02 08:52:12;;;;;;;24.13;14.20;;;;;;;15.64;57.72;99973.03;5056099;28;20405;-59
2021/04/02 08:54:38;;;;;;;25.42;15.00;;;;;;;15.69;57.45;99978.94;5032072;28;20029;-52
2021/04/02 08:57:05;;;;;;;27.77;15.73;;;;;;;15.76;57.31;99969.44;5051946;28;20099;-62
2021/04/02 08:59:32;;;;;;;29.73;13.70;;;;;;;15.83;57.11;99968.41;5056221;28;20320;-53
2021/04/02 09:01:58;;;;;;;28.10;14.82;;;;;;;15.88;56.15;99968.66;5056424;28;20021;-55
2021/04/02 09:04:24;;;;;;;29.65;15.57;;;;;;;15.92;56.90;99963.72;5055335;28;20028;-50
2021/04/02 09:06:50;;;;;;;28.50;14.88;;;;;;;15.98;56.60;99961.09;5056045;28;20021;-55
2021/04/02 09:09:20;;;;;;;34.95;14.40;;;;;;;16.02;55.88;99965.41;5047589;28;20029;-56
2021/04/02 09:11:48;;;;;;;26.10;14.25;;;;;;;16.07;56.25;99964.06;5055993;28;20033;-56
2021/04/02 09:14:14;;;;;;;25.60;13.65;;;;;;;16.17;56.67;99965.81;5055956;28;20021;-59
2021/04/02 09:16:42;;;;;;;27.30;14.65;;;;;;;16.27;56.73;99961.03;5038391;28;20100;-53
2021/04/02 09:19:08;;;;;;;21.85;13.95;;;;;;;16.38;56.76;99962.28;5055104;28;20317;-58
2021/04/02 09:21:34;;;;;;;26.10;14.55;;;;;;;16.50;56.00;99957.09;5056133;28;20147;-61
2021/04/02 09:24:02;;;;;;;29.95;14.45;;;;;;;16.62;54.85;99962.75;5056204;28;20033;-61
2021/04/02 09:26:28;;;;;;;30.02;14.65;;;;;;;16.71;54.26;99967.78;5055508;28;20104;-53
2021/04/02 09:28:59;;;;;;;29.10;14.40;;;;;;;16.71;54.20;99964.94;5055933;28;20024;-60
2021/04/02 09:31:24;;;;;;;25.08;13.63;;;;;;;16.77;54.44;99965.16;5055901;28;20025;-59
2021/04/02 09:33:52;;;;;;;30.35;14.07;;;;;;;16.84;55.16;99962.09;5054558;28;20032;-56
2021/04/02 09:36:18;;;;;;;30.25;14.05;;;;;;;16.94;55.20;99953.19;5039498;28;20371;-57
2021/04/02 09:38:45;;;;;;;25.67;13.02;;;;;;;17.09;55.42;99949.88;5054952;28;20294;-57
2021/04/02 09:41:12;;;;;;;26.58;13.75;;;;;;;17.24;54.23;99948.91;5054883;28;20087;-58
2021/04/02 09:43:42;;;;;;;29.02;13.50;;;;;;;17.45;55.05;99932.38;5055560;28;20124;-59
2021/04/02 09:46:07;;;;;;;29.13;13.73;;;;;;;17.63;52.54;99917.53;5038890;28;20029;-60
2021/04/02 09:48:37;;;;;;;21.27;12.63;;;;;;;17.78;52.95;99924.28;5057452;28;20023;-61
2021/04/02 09:51:04;;;;;;;22.55;12.40;;;;;;;17.87;52.11;99922.31;5057317;28;20032;-62
2021/04/02 09:53:29;;;;;;;26.15;14.15;;;;;;;17.98;50.61;99912.56;5065377;28;20462;-54
2021/04/02 09:55:55;;;;;;;32.90;15.15;;;;;;;18.02;49.69;99913.22;5059585;28;20056;-55
2021/04/02 09:58:20;;;;;;;23.77;13.40;;;;;;;18.05;49.88;99918.75;5060686;28;20039;-58
2021/04/02 10:00:45;;;;;;;30.00;14.30;;;;;;;18.07;49.50;99918.28;5055015;28;20021;-62
2021/04/02 10:03:13;;;;;;;35.47;15.48;;;;;;;18.13;49.12;99920.09;5061537;28;20116;-57
2021/04/02 10:05:38;;;;;;;33.72;14.55;;;;;;;18.19;49.55;99915.38;5040167;28;20424;-57
2021/04/02 10:08:04;;;;;;;26.40;13.95;;;;;;;18.31;48.85;99895.81;5060213;28;20068;-58
2021/04/02 10:10:29;;;;;;;27.20;12.88;;;;;;;18.53;50.56;99903.03;5054382;28;20090;-59
2021/04/02 10:12:55;;;;;;;31.75;14.13;;;;;;;18.76;49.08;99907.38;5059452;28;20359;-58
2021/04/02 10:15:20;;;;;;;23.58;12.40;;;;;;;18.94;47.43;99894.47;5059845;28;20029;-56
2021/04/02 10:17:45;;;;;;;24.23;13.88;;;;;;;19.07;48.19;99893.03;5066139;28;20055;-60
2021/04/02 10:20:11;;;;;;;33.80;14.38;;;;;;;19.21;46.59;99897.34;5069143;28;20039;-61
2021/04/02 10:22:36;;;;;;;26.38;14.20;;;;;;;19.34;46.16;99892.25;5065884;28;20048;-61
2021/04/02 10:25:02;;;;;;;21.17;13.75;;;;;;;19.49;45.62;99897.34;5028472;28;20439;-60
2021/04/02 10:27:28;;;;;;;27.92;14.57;;;;;;;19.64;43.48;99889.72;5067550;28;20037;-53
2021/04/02 10:29:53;;;;;;;32.17;16.23;;;;;;;19.79;43.04;99892.72;5067469;28;20017;-61
2021/04/02 10:32:19;;;;;;;37.53;16.83;;;;;;;19.88;43.23;99890.66;5059334;28;20025;-61
2021/04/02 10:34:44;;;;;;;29.70;15.85;;;;;;;20.01;42.52;99894.13;5040974;28;20103;-61
2021/04/02 10:37:11;;;;;;;27.20;14.88;;;;;;;20.12;41.09;99889.94;5058758;28;20032;-61
2021/04/02 10:39:36;;;;;;;29.13;14.95;;;;;;;20.14;40.77;99890.25;5058698;28;20025;-59
2021/04/02 10:42:02;;;;;;;35.05;14.18;;;;;;;20.11;40.36;99894.06;5058731;28;20313;-59
2021/04/02 10:44:27;;;;;;;26.27;14.25;;;;;;;20.09;40.26;99885.22;5058830;28;20731;-60
2021/04/02 10:46:53;;;;;;;32.72;15.57;;;;;;;20.06;39.06;99899.16;5056768;28;20029;-61
2021/04/02 10:49:18;;;;;;;28.77;14.70;;;;;;;19.99;39.67;99898.69;5059163;28;20029;-56
2021/04/02 10:51:43;;;;;;;34.08;15.48;;;;;;;19.89;40.20;99889.38;5059053;28;20112;-57
2021/04/02 10:54:09;;;;;;;27.30;15.60;;;;;;;19.82;39.91;99901.13;5062941;28;20025;-58
2021/04/02 10:56:34;;;;;;;28.27;14.68;;;;;;;19.89;40.14;99888.59;5061913;28;20032;-56
2021/04/02 10:59:00;;;;;;;39.25;15.70;;;;;;;19.95;40.54;99886.66;5058325;28;20021;-57
2021/04/02 11:01:25;;;;;;;29.20;14.65;;;;;;;19.97;40.02;99892.66;5058512;28;20021;-56
2021/04/02 11:03:51;;;;;;;34.03;15.43;;;;;;;20.03;40.25;99885.88;5061287;28;20035;-59
2021/04/02 11:06:16;;;;;;;41.58;15.68;;;;;;;20.14;39.80;99878.84;5058535;28;20112;-52
2021/04/02 11:08:41;;;;;;;34.10;15.15;;;;;;;20.24;40.17;99889.72;5049409;28;20044;-56
2021/04/02 11:11:07;;;;;;;32.97;16.05;;;;;;;20.38;38.99;99879.69;5056770;28;20282;-58
2021/04/02 11:13:33;;;;;;;39.22;16.98;;;;;;;20.50;38.19;99875.06;5057230;28;20037;-58
2021/04/02 11:15:58;;;;;;;37.10;16.48;;;;;;;20.56;38.19;99873.16;5057621;28;20029;-56
2021/04/02 11:18:23;;;;;;;46.65;15.75;;;;;;;20.70;38.74;99880.19;5056766;28;20029;-54
2021/04/02 11:20:49;;;;;;;36.35;16.33;;;;;;;20.78;37.94;99878.56;5057684;28;20049;-55